createdAt,value
2023-10-21T00:02:24.901Z,11.90
2023-10-21T00:04:52.530Z,11.15
2023-10-21T00:07:20.777Z,11.55
2023-10-21T00:09:48.517Z,12.50
2023-10-21T00:12:16.777Z,12.15
2023-10-21T00:14:44.585Z,11.55
2023-10-21T00:17:12.659Z,11.52
2023-10-21T00:19:40.368Z,11.10
2023-10-21T00:22:08.787Z,11.10
2023-10-21T00:24:36.480Z,10.45
2023-10-21T00:27:04.562Z,9.45
2023-10-21T00:29:32.361Z,10.75
2023-10-21T00:32:00.403Z,9.68
2023-10-21T00:34:28.038Z,9.80
2023-10-21T00:36:57.607Z,10.63
2023-10-21T00:39:25.556Z,9.23
2023-10-21T00:41:53.530Z,8.63
2023-10-21T00:44:21.163Z,9.30
2023-10-21T00:46:49.381Z,9.80
2023-10-21T00:49:17.031Z,8.90
2023-10-21T00:51:47.880Z,9.15
2023-10-21T00:54:16.888Z,8.52
2023-10-21T00:56:44.937Z,9.20
2023-10-21T00:59:15.878Z,10.57
2023-10-21T01:01:45.949Z,9.15
2023-10-21T01:04:18.346Z,9.50
2023-10-21T01:06:46.402Z,9.80
2023-10-21T01:09:17.250Z,9.38
2023-10-21T01:11:45.399Z,10.07
2023-10-21T01:14:15.204Z,8.52
2023-10-21T01:16:43.450Z,9.02
2023-10-21T01:19:11.187Z,9.30
2023-10-21T01:21:39.318Z,8.77
2023-10-21T01:24:07.801Z,9.30
2023-10-21T01:26:36.689Z,10.00
2023-10-21T01:29:11.428Z,9.57
2023-10-21T01:31:40.075Z,9.27
2023-10-21T01:34:08.773Z,9.23
2023-10-21T01:36:37.210Z,9.80
2023-10-21T01:39:07.401Z,9.43
2023-10-21T01:41:35.374Z,9.30
2023-10-21T01:44:03.426Z,11.70
2023-10-21T01:46:31.586Z,11.38
2023-10-21T01:48:59.212Z,10.87
2023-10-21T01:51:27.397Z,11.05
2023-10-21T01:53:55.024Z,10.90
2023-10-21T01:56:24.098Z,11.80
2023-10-21T01:58:51.800Z,11.40
2023-10-21T02:01:20.005Z,11.57
2023-10-21T02:03:48.738Z,12.07
2023-10-21T02:06:17.040Z,11.48
2023-10-21T02:08:45.303Z,12.85
2023-10-21T02:11:13.538Z,12.90
2023-10-21T02:13:41.192Z,12.67
2023-10-21T02:16:12.773Z,11.80
2023-10-21T02:18:40.818Z,12.07
2023-10-21T02:21:09.341Z,11.40
2023-10-21T02:23:37.076Z,12.13
2023-10-21T02:26:06.846Z,12.07
2023-10-21T02:28:34.842Z,12.85
2023-10-21T02:31:06.011Z,12.27
2023-10-21T02:33:33.829Z,11.55
2023-10-21T02:36:01.936Z,14.68
2023-10-21T02:38:29.673Z,34.83
2023-10-21T02:40:57.696Z,19.38
2023-10-21T02:43:25.279Z,13.43
2023-10-21T02:45:53.534Z,16.67
2023-10-21T02:48:21.523Z,14.07
2023-10-21T02:50:49.812Z,14.67
2023-10-21T02:53:17.806Z,12.77
2023-10-21T02:55:45.777Z,12.13
2023-10-21T02:58:13.369Z,13.02
2023-10-21T03:00:42.095Z,13.00
2023-10-21T03:03:10.428Z,12.80
2023-10-21T03:05:41.026Z,11.85
2023-10-21T03:08:08.929Z,12.50
2023-10-21T03:10:38.682Z,11.80
2023-10-21T03:13:06.365Z,12.50
2023-10-21T03:15:37.437Z,11.90
2023-10-21T03:18:05.446Z,11.30
2023-10-21T03:20:34.187Z,11.07
2023-10-21T03:23:02.433Z,11.77
2023-10-21T03:25:30.736Z,12.05
2023-10-21T03:27:58.471Z,11.33
2023-10-21T03:30:26.319Z,11.43
2023-10-21T03:32:54.284Z,11.25
2023-10-21T03:35:22.329Z,11.68
2023-10-21T03:37:50.427Z,12.13
2023-10-21T03:40:19.289Z,10.70
2023-10-21T03:42:47.001Z,12.23
2023-10-21T03:45:15.108Z,11.63
2023-10-21T03:47:44.322Z,12.55
2023-10-21T03:50:12.398Z,11.23
2023-10-21T03:52:41.342Z,12.43
2023-10-21T03:55:11.635Z,12.18
2023-10-21T03:57:39.547Z,12.48
2023-10-21T04:00:09.430Z,12.32
2023-10-21T04:02:39.519Z,12.30
2023-10-21T04:05:09.808Z,12.10
2023-10-21T04:07:37.513Z,13.00
2023-10-21T04:10:05.874Z,13.18
2023-10-21T04:12:33.729Z,11.82
2023-10-21T04:15:02.124Z,12.85
2023-10-21T04:17:29.954Z,12.50
2023-10-21T04:19:58.236Z,12.60
2023-10-21T04:22:26.077Z,12.95
2023-10-21T04:24:55.112Z,15.10
2023-10-21T04:27:22.938Z,14.00
2023-10-21T04:29:50.980Z,11.70
2023-10-21T04:32:18.759Z,13.85
2023-10-21T04:34:46.969Z,12.48
2023-10-21T04:37:14.863Z,12.57
2023-10-21T04:39:43.252Z,11.75
2023-10-21T04:42:12.384Z,11.95
2023-10-21T04:44:41.652Z,12.43
2023-10-21T04:47:09.606Z,14.38
2023-10-21T04:49:38.380Z,14.95
2023-10-21T04:52:06.508Z,14.20
2023-10-21T04:54:35.878Z,17.23
2023-10-21T04:57:04.022Z,18.42
2023-10-21T04:59:32.104Z,17.85
2023-10-21T05:02:01.049Z,21.00
2023-10-21T05:04:29.319Z,19.45
2023-10-21T05:06:57.020Z,19.67
2023-10-21T05:09:28.304Z,18.73
2023-10-21T05:11:56.384Z,16.85
2023-10-21T05:14:24.645Z,20.00
2023-10-21T05:16:52.568Z,15.90
2023-10-21T05:19:22.796Z,14.77
2023-10-21T05:21:50.946Z,18.05
2023-10-21T05:24:19.379Z,17.23
2023-10-21T05:26:47.926Z,15.77
2023-10-21T05:29:16.313Z,18.42
2023-10-21T05:31:44.387Z,18.33
2023-10-21T05:34:20.126Z,18.90
2023-10-21T05:36:48.935Z,17.45
2023-10-21T05:39:17.194Z,17.63
2023-10-21T05:41:45.295Z,18.52
2023-10-21T05:44:13.547Z,18.00
2023-10-21T05:46:41.882Z,16.35
2023-10-21T05:49:11.090Z,16.60
2023-10-21T05:51:38.999Z,14.38
2023-10-21T05:54:07.314Z,13.30
2023-10-21T05:56:35.369Z,12.43
2023-10-21T05:59:05.941Z,12.23
2023-10-21T06:01:33.735Z,13.80
2023-10-21T06:04:01.897Z,14.52
2023-10-21T06:06:29.871Z,11.90
2023-10-21T06:08:58.569Z,12.52
2023-10-21T06:11:26.969Z,12.45
2023-10-21T06:13:56.163Z,12.23
2023-10-21T06:16:24.216Z,12.95
2023-10-21T06:18:52.418Z,10.90
2023-10-21T06:21:20.719Z,10.97
2023-10-21T06:23:49.427Z,10.68
2023-10-21T06:26:17.205Z,11.90
2023-10-21T06:28:45.403Z,10.52
2023-10-21T06:31:13.191Z,9.70
2023-10-21T06:33:41.453Z,10.50
2023-10-21T06:36:09.701Z,10.63
2023-10-21T06:38:38.259Z,10.82
2023-10-21T06:41:14.130Z,10.00
2023-10-21T06:43:44.134Z,9.73
2023-10-21T06:46:12.934Z,9.40
2023-10-21T06:48:41.336Z,10.35
2023-10-21T06:51:09.430Z,10.57
2023-10-21T06:53:37.582Z,10.35
2023-10-21T06:56:11.956Z,10.70
2023-10-21T06:58:49.346Z,9.30
2023-10-21T07:01:17.410Z,9.85
2023-10-21T07:03:47.272Z,9.50
2023-10-21T07:06:15.309Z,8.75
2023-10-21T07:08:43.989Z,10.10
2023-10-21T07:11:12.474Z,10.93
2023-10-21T07:13:44.825Z,10.48
2023-10-21T07:16:13.112Z,9.20
2023-10-21T07:18:41.724Z,10.07
2023-10-21T07:21:10.807Z,10.40
2023-10-21T07:23:38.949Z,9.83
2023-10-21T07:26:06.968Z,9.55
2023-10-21T07:28:35.577Z,9.50
2023-10-21T07:31:04.057Z,9.10
2023-10-21T07:33:32.328Z,8.13
2023-10-21T07:36:00.565Z,8.07
2023-10-21T07:38:28.737Z,8.38
2023-10-21T07:40:57.919Z,8.32
2023-10-21T07:43:26.121Z,8.70
2023-10-21T07:45:54.025Z,8.07
2023-10-21T07:48:22.228Z,7.60
2023-10-21T07:50:55.362Z,7.55
2023-10-21T07:53:23.700Z,6.22
2023-10-21T07:55:52.079Z,7.05
2023-10-21T07:58:20.869Z,7.88
2023-10-21T08:00:48.787Z,6.40
2023-10-21T08:03:17.248Z,6.90
2023-10-21T08:05:46.109Z,6.68
2023-10-21T08:08:14.951Z,6.78
2023-10-21T08:10:42.612Z,6.90
2023-10-21T08:13:10.921Z,7.07
2023-10-21T08:15:39.814Z,6.28
2023-10-21T08:18:09.174Z,6.38
2023-10-21T08:20:39.434Z,6.10
2023-10-21T08:23:09.172Z,6.68
2023-10-21T08:25:38.046Z,6.67
2023-10-21T08:28:06.702Z,7.55
2023-10-21T08:30:34.481Z,7.32
2023-10-21T08:33:04.158Z,6.43
2023-10-21T08:35:33.853Z,10.20
2023-10-21T08:38:02.179Z,11.00
2023-10-21T08:40:30.173Z,10.52
2023-10-21T08:43:02.895Z,10.00
2023-10-21T08:45:32.692Z,6.93
2023-10-21T08:48:02.738Z,7.07
2023-10-21T08:50:33.937Z,6.70
2023-10-21T08:53:02.315Z,6.03
2023-10-21T08:55:30.976Z,6.57
2023-10-21T08:57:59.290Z,9.45
2023-10-21T09:00:27.528Z,5.85
2023-10-21T09:02:57.572Z,6.13
2023-10-21T09:05:25.680Z,5.93
2023-10-21T09:07:54.096Z,5.72
2023-10-21T09:10:22.809Z,5.38
2023-10-21T09:12:51.019Z,6.10
2023-10-21T09:15:20.805Z,6.67
2023-10-21T09:17:53.964Z,6.50
2023-10-21T09:20:23.770Z,5.80
2023-10-21T09:22:53.837Z,6.32
2023-10-21T09:25:22.764Z,5.50
2023-10-21T09:27:55.690Z,6.50
2023-10-21T09:30:26.658Z,5.38
2023-10-21T09:33:16.403Z,4.95
2023-10-21T09:35:44.364Z,5.95
2023-10-21T09:38:20.433Z,5.63
2023-10-21T09:40:48.218Z,5.20
2023-10-21T09:43:16.552Z,5.22
2023-10-21T09:45:46.816Z,5.22
2023-10-21T09:48:15.412Z,4.57
2023-10-21T09:50:55.532Z,5.43
2023-10-21T09:53:26.630Z,5.87
2023-10-21T09:55:57.421Z,6.55
2023-10-21T09:58:28.570Z,6.63
2023-10-21T10:00:57.519Z,6.35
2023-10-21T10:03:27.897Z,5.82
2023-10-21T10:05:56.567Z,5.57
2023-10-21T10:08:25.157Z,6.13
2023-10-21T10:10:56.685Z,6.32
2023-10-21T10:13:26.556Z,7.95
2023-10-21T10:15:57.263Z,10.07
2023-10-21T10:18:27.068Z,10.73
2023-10-21T10:20:54.897Z,10.77
2023-10-21T10:23:27.046Z,12.10
2023-10-21T10:25:57.407Z,7.75
2023-10-21T10:28:29.118Z,5.32
2023-10-21T10:30:58.855Z,25.67
2023-10-21T10:33:37.178Z,6.85
2023-10-21T10:36:08.035Z,4.22
2023-10-21T10:38:46.619Z,4.13
2023-10-21T10:41:20.469Z,4.55
2023-10-21T10:43:57.730Z,5.07
2023-10-21T10:46:27.019Z,3.95
2023-10-21T10:48:56.205Z,3.90
2023-10-21T10:51:25.070Z,4.22
2023-10-21T10:54:02.163Z,3.80
2023-10-21T10:56:54.252Z,4.38
2023-10-21T10:59:26.469Z,3.75
2023-10-21T11:02:03.536Z,3.45
2023-10-21T11:04:34.232Z,3.60
2023-10-21T11:07:05.507Z,3.75
2023-10-21T11:09:35.800Z,3.50
2023-10-21T11:12:10.459Z,4.00
2023-10-21T11:14:40.152Z,3.70
2023-10-21T11:17:08.475Z,3.67
2023-10-21T11:19:37.123Z,3.53
2023-10-21T11:22:09.912Z,3.40
2023-10-21T11:24:38.600Z,3.88
2023-10-21T11:27:07.907Z,3.30
2023-10-21T11:29:39.253Z,4.30
2023-10-21T11:32:13.518Z,4.15
2023-10-21T11:34:46.551Z,3.27
2023-10-21T11:37:14.557Z,3.75
2023-10-21T11:39:42.836Z,3.28
2023-10-21T11:42:20.496Z,3.53
2023-10-21T11:45:02.921Z,3.30
2023-10-21T11:47:32.308Z,3.70
2023-10-21T11:50:00.753Z,3.40
2023-10-21T11:52:29.376Z,3.75
2023-10-21T11:55:12.055Z,3.92
2023-10-21T11:57:59.364Z,4.25
2023-10-21T12:01:02.403Z,4.63
2023-10-21T12:03:34.635Z,4.00
2023-10-21T12:06:21.719Z,4.00
2023-10-21T12:09:09.602Z,4.10
2023-10-21T12:12:03.961Z,3.80
2023-10-21T12:14:51.659Z,4.20
2023-10-21T12:17:25.659Z,4.32
2023-10-21T12:20:14.651Z,4.70
2023-10-21T12:22:57.516Z,4.93
2023-10-21T12:25:44.231Z,5.10
2023-10-21T12:28:31.124Z,5.38
2023-10-21T12:31:19.490Z,5.78
2023-10-21T12:34:00.746Z,7.15
2023-10-21T12:36:37.088Z,6.93
2023-10-21T12:39:17.612Z,7.60
2023-10-21T12:42:01.280Z,5.60
2023-10-21T12:44:39.630Z,6.28
2023-10-21T12:47:08.959Z,5.78
2023-10-21T12:49:36.685Z,5.93
2023-10-21T12:52:13.345Z,6.22
2023-10-21T12:54:41.161Z,4.30
2023-10-21T12:57:11.310Z,4.60
2023-10-21T12:59:39.557Z,5.43
2023-10-21T13:02:09.854Z,5.20
2023-10-21T13:04:42.473Z,5.85
2023-10-21T13:07:10.719Z,7.33
2023-10-21T13:09:42.850Z,6.90
2023-10-21T13:12:11.230Z,4.53
2023-10-21T13:14:40.276Z,5.50
2023-10-21T13:17:09.803Z,5.38
2023-10-21T13:19:37.824Z,4.37
2023-10-21T13:22:07.732Z,3.95
2023-10-21T13:24:36.710Z,4.47
2023-10-21T13:27:09.119Z,4.03
2023-10-21T13:29:37.848Z,4.05
2023-10-21T13:32:05.993Z,5.40
2023-10-21T13:34:34.071Z,5.93
2023-10-21T13:37:02.080Z,5.97
2023-10-21T13:39:30.409Z,6.25
2023-10-21T13:41:58.714Z,5.90
2023-10-21T13:44:26.705Z,5.23
2023-10-21T13:46:54.877Z,5.25
2023-10-21T13:49:22.810Z,6.25
2023-10-21T13:51:53.318Z,5.82
2023-10-21T13:54:23.869Z,5.32
2023-10-21T13:56:52.255Z,7.23
2023-10-21T13:59:20.713Z,12.23
2023-10-21T14:01:49.288Z,23.65
2023-10-21T14:04:19.800Z,7.03
2023-10-21T14:06:52.891Z,10.25
2023-10-21T14:09:25.405Z,25.57
2023-10-21T14:11:54.133Z,9.45
2023-10-21T14:14:22.517Z,4.32
2023-10-21T14:16:50.827Z,10.63
2023-10-21T14:19:22.000Z,9.18
2023-10-21T14:21:50.939Z,7.00
2023-10-21T14:24:18.702Z,5.55
2023-10-21T14:26:46.886Z,10.02
2023-10-21T14:29:15.238Z,6.38
2023-10-21T14:31:44.249Z,6.03
2023-10-21T14:34:14.972Z,5.27
2023-10-21T14:36:45.110Z,5.88
2023-10-21T14:39:12.921Z,7.20
2023-10-21T14:41:41.853Z,4.85
2023-10-21T14:44:10.617Z,5.40
2023-10-21T14:46:40.236Z,4.67
2023-10-21T14:49:09.291Z,6.28
2023-10-21T14:51:38.306Z,5.63
2023-10-21T14:54:08.440Z,5.28
2023-10-21T14:56:37.174Z,5.43
2023-10-21T14:59:07.493Z,6.30
2023-10-21T15:01:36.531Z,5.70
2023-10-21T15:04:05.106Z,7.05
2023-10-21T15:06:33.752Z,9.73
2023-10-21T15:09:01.961Z,6.90
2023-10-21T15:11:30.815Z,5.03
2023-10-21T15:13:59.172Z,5.75
2023-10-21T15:16:27.603Z,5.53
2023-10-21T15:18:55.387Z,6.65
2023-10-21T15:21:24.101Z,10.18
2023-10-21T15:23:52.106Z,9.23
2023-10-21T15:26:20.437Z,11.43
2023-10-21T15:28:48.138Z,13.90
2023-10-21T15:31:19.227Z,12.35
2023-10-21T15:33:47.353Z,13.80
2023-10-21T15:36:17.355Z,9.83
2023-10-21T15:38:47.563Z,9.20
2023-10-21T15:41:17.412Z,5.20
2023-10-21T15:43:46.121Z,5.13
2023-10-21T15:46:15.473Z,3.63
2023-10-21T15:48:43.346Z,4.00
2023-10-21T15:51:13.843Z,3.92
2023-10-21T15:53:44.907Z,4.85
2023-10-21T15:56:14.859Z,4.57
2023-10-21T15:58:43.248Z,4.57
2023-10-21T16:01:12.606Z,5.17
2023-10-21T16:03:42.211Z,6.80
2023-10-21T16:06:13.672Z,7.32
2023-10-21T16:08:42.177Z,6.50
2023-10-21T16:11:10.626Z,6.63
2023-10-21T16:13:39.475Z,9.35
2023-10-21T16:16:10.747Z,8.05
2023-10-21T16:18:38.954Z,6.40
2023-10-21T16:21:07.053Z,6.55
2023-10-21T16:23:34.975Z,12.48
2023-10-21T16:26:03.437Z,7.50
2023-10-21T16:28:32.177Z,7.32
2023-10-21T16:31:01.234Z,12.13
2023-10-21T16:33:29.222Z,10.90
2023-10-21T16:35:58.889Z,9.52
2023-10-21T16:38:27.145Z,11.70
2023-10-21T16:40:55.927Z,14.82
2023-10-21T16:43:25.725Z,13.27
2023-10-21T16:45:54.428Z,12.18
2023-10-21T16:48:23.742Z,13.52
2023-10-21T16:50:52.339Z,15.43
2023-10-21T16:53:20.326Z,21.50
2023-10-21T16:55:48.551Z,14.30
2023-10-21T16:58:17.195Z,10.63
2023-10-21T17:00:45.525Z,9.98
2023-10-21T17:03:15.691Z,8.97
2023-10-21T17:05:44.267Z,7.57
2023-10-21T17:08:12.679Z,8.05
2023-10-21T17:10:41.113Z,26.33
2023-10-21T17:13:09.286Z,11.18
2023-10-21T17:15:38.142Z,10.73
2023-10-21T17:18:10.482Z,27.73
2023-10-21T17:20:39.789Z,26.92
2023-10-21T17:23:07.969Z,25.42
2023-10-21T17:25:36.365Z,14.27
2023-10-21T17:28:04.573Z,7.93
2023-10-21T17:30:33.098Z,8.40
2023-10-21T17:33:01.229Z,11.27
2023-10-21T17:35:30.969Z,19.08
2023-10-21T17:37:58.892Z,17.25
2023-10-21T17:40:29.600Z,16.52
2023-10-21T17:42:58.281Z,16.98
2023-10-21T17:45:26.875Z,17.42
2023-10-21T17:47:55.064Z,17.65
2023-10-21T17:50:24.769Z,19.25
2023-10-21T17:52:53.752Z,25.43
2023-10-21T17:55:25.630Z,23.85
2023-10-21T17:57:54.280Z,19.17
2023-10-21T18:00:23.910Z,18.90
2023-10-21T18:02:52.366Z,18.85
2023-10-21T18:05:20.955Z,27.07
2023-10-21T18:07:49.052Z,24.15
2023-10-21T18:10:18.004Z,23.38
2023-10-21T18:12:46.251Z,26.67
2023-10-21T18:15:14.792Z,31.08
2023-10-21T18:17:42.994Z,38.95
2023-10-21T18:20:12.257Z,30.10
2023-10-21T18:22:41.014Z,18.88
2023-10-21T18:25:09.715Z,31.98
2023-10-21T18:27:37.947Z,31.50
2023-10-21T18:30:07.302Z,27.48
2023-10-21T18:32:35.229Z,25.42
2023-10-21T18:35:04.110Z,21.02
2023-10-21T18:37:32.442Z,23.10
2023-10-21T18:40:00.493Z,20.45
2023-10-21T18:42:29.846Z,18.73
2023-10-21T18:44:59.226Z,18.85
2023-10-21T18:47:27.584Z,20.05
2023-10-21T18:49:56.100Z,17.55
2023-10-21T18:52:24.258Z,13.57
2023-10-21T18:54:53.746Z,12.23
2023-10-21T18:57:22.661Z,10.60
2023-10-21T18:59:55.181Z,10.50
2023-10-21T19:02:23.070Z,10.52
2023-10-21T19:04:53.398Z,11.45
2023-10-21T19:07:21.868Z,14.57
2023-10-21T19:09:50.183Z,17.92
2023-10-21T19:12:21.656Z,18.05
2023-10-21T19:14:50.383Z,15.68
2023-10-21T19:17:18.487Z,16.90
2023-10-21T19:19:51.814Z,14.63
2023-10-21T19:22:22.309Z,16.27
2023-10-21T19:24:51.199Z,11.32
2023-10-21T19:27:19.160Z,14.70
2023-10-21T19:29:55.065Z,14.05
2023-10-21T19:32:25.623Z,10.80
2023-10-21T19:34:54.166Z,8.85
2023-10-21T19:37:22.736Z,10.23
2023-10-21T19:39:51.454Z,9.00
2023-10-21T19:42:20.674Z,9.93
2023-10-21T19:44:54.183Z,10.20
2023-10-21T19:47:21.958Z,10.43
2023-10-21T19:49:50.288Z,10.88
2023-10-21T19:52:22.291Z,10.73
2023-10-21T19:54:53.734Z,10.80
2023-10-21T19:57:21.688Z,11.10
2023-10-21T19:59:49.776Z,11.23
2023-10-21T20:02:17.889Z,11.00
2023-10-21T20:04:47.785Z,11.90
2023-10-21T20:07:15.641Z,11.63
2023-10-21T20:09:44.834Z,12.10
2023-10-21T20:12:13.062Z,11.30
2023-10-21T20:14:42.051Z,12.50
2023-10-21T20:17:10.218Z,11.50
2023-10-21T20:19:38.790Z,10.82
2023-10-21T20:22:06.958Z,13.17
2023-10-21T20:24:35.789Z,11.73
2023-10-21T20:27:04.479Z,12.75
2023-10-21T20:29:33.112Z,12.63
2023-10-21T20:32:01.192Z,13.00
2023-10-21T20:34:29.815Z,13.40
2023-10-21T20:36:57.882Z,11.27
2023-10-21T20:39:26.243Z,11.57
2023-10-21T20:42:02.794Z,12.63
2023-10-21T20:44:31.106Z,13.55
2023-10-21T20:47:00.118Z,12.87
2023-10-21T20:49:28.478Z,13.02
2023-10-21T20:51:57.602Z,12.18
2023-10-21T20:54:25.805Z,12.95
2023-10-21T20:56:53.859Z,12.35
2023-10-21T20:59:23.103Z,11.83
2023-10-21T21:01:50.888Z,12.23
2023-10-21T21:04:20.296Z,11.27
2023-10-21T21:06:48.299Z,11.27
2023-10-21T21:09:16.626Z,11.07
2023-10-21T21:11:46.314Z,13.00
2023-10-21T21:14:14.542Z,12.40
2023-10-21T21:16:43.422Z,13.25
2023-10-21T21:19:11.908Z,12.88
2023-10-21T21:21:43.203Z,17.42
2023-10-21T21:24:11.451Z,15.33
2023-10-21T21:26:40.185Z,14.30
2023-10-21T21:29:08.565Z,13.25
2023-10-21T21:31:36.503Z,13.10
2023-10-21T21:34:05.152Z,12.48
2023-10-21T21:36:33.294Z,13.47
2023-10-21T21:39:01.686Z,17.45
2023-10-21T21:41:29.520Z,13.70
2023-10-21T21:43:57.760Z,13.40
2023-10-21T21:46:25.810Z,13.98
2023-10-21T21:48:54.137Z,12.80
2023-10-21T21:51:22.093Z,12.85
2023-10-21T21:53:50.425Z,14.68
2023-10-21T21:56:19.493Z,16.80
2023-10-21T21:58:49.973Z,14.85
2023-10-21T22:01:30.302Z,15.03
2023-10-21T22:03:59.512Z,13.45
2023-10-21T22:06:27.881Z,14.20
2023-10-21T22:08:56.350Z,13.57
2023-10-21T22:11:27.217Z,14.45
2023-10-21T22:13:55.599Z,14.17
2023-10-21T22:16:24.424Z,14.25
2023-10-21T22:18:52.880Z,12.88
2023-10-21T22:21:21.393Z,14.27
2023-10-21T22:26:28.404Z,13.40
2023-10-21T22:29:06.504Z,13.52
2023-10-21T22:31:34.625Z,13.35
2023-10-21T22:34:02.947Z,12.65
2023-10-21T22:36:31.061Z,13.13
2023-10-21T22:38:59.358Z,13.10
2023-10-21T22:41:27.264Z,13.40
2023-10-21T22:43:55.413Z,13.15
2023-10-21T22:46:23.435Z,12.45
2023-10-21T22:48:51.564Z,13.57
2023-10-21T22:51:19.697Z,14.33
2023-10-21T22:53:47.931Z,13.95
2023-10-21T22:56:15.702Z,12.75
2023-10-21T22:58:43.889Z,13.65
2023-10-21T23:01:12.618Z,13.82
2023-10-21T23:03:42.422Z,13.13
2023-10-21T23:06:10.244Z,13.57
2023-10-21T23:08:39.614Z,13.80
2023-10-21T23:11:10.416Z,13.20
2023-10-21T23:13:38.816Z,12.98
2023-10-21T23:16:06.975Z,12.97
2023-10-21T23:18:35.845Z,12.32
2023-10-21T23:21:03.990Z,12.95
2023-10-21T23:23:32.324Z,11.52
2023-10-21T23:26:00.872Z,11.90
2023-10-21T23:28:29.844Z,12.47
2023-10-21T23:30:57.474Z,13.80
2023-10-21T23:33:25.601Z,14.73
2023-10-21T23:35:53.480Z,11.85
2023-10-21T23:38:21.468Z,12.35
2023-10-21T23:40:49.803Z,12.67
2023-10-21T23:43:18.131Z,11.98
2023-10-21T23:45:45.839Z,13.05
2023-10-21T23:48:14.086Z,12.52
2023-10-21T23:50:42.236Z,10.93
2023-10-21T23:53:10.295Z,11.10
2023-10-21T23:55:37.968Z,11.10
2023-10-21T23:58:06.157Z,10.95
